createdAt,value
2018-08-22T00:01:39.167Z,100677.44
2018-08-22T00:04:12.250Z,100681.12
2018-08-22T00:06:45.227Z,100680.20
2018-08-22T00:09:18.244Z,100676.59
2018-08-22T00:11:52.696Z,100674.34
2018-08-22T00:14:25.619Z,100681.27
2018-08-22T00:16:58.552Z,100683.25
2018-08-22T00:19:31.396Z,100693.38
2018-08-22T00:22:04.282Z,100693.70
2018-08-22T00:24:38.700Z,100702.58
2018-08-22T00:27:11.624Z,100703.09
2018-08-22T00:29:44.582Z,100712.30
2018-08-22T00:32:17.571Z,100715.03
2018-08-22T00:34:50.581Z,100719.12
2018-08-22T00:37:23.483Z,100720.44
2018-08-22T00:39:56.412Z,100713.91
2018-08-22T00:42:29.359Z,100718.69
2018-08-22T00:45:02.166Z,100727.19
2018-08-22T00:47:35.067Z,100732.70
2018-08-22T00:50:07.993Z,100735.06
2018-08-22T00:52:40.944Z,100744.83
2018-08-22T00:55:14.010Z,100747.80
2018-08-22T00:57:46.945Z,100751.43
2018-08-22T01:00:19.933Z,100748.84
2018-08-22T01:02:52.993Z,100751.33
2018-08-22T01:05:26.286Z,100763.64
2018-08-22T01:08:00.017Z,100766.11
2018-08-22T01:10:33.461Z,100767.83
2018-08-22T01:13:06.908Z,100761.03
2018-08-22T01:15:40.352Z,100756.14
2018-08-22T01:18:13.919Z,100755.23
2018-08-22T01:20:47.822Z,100743.42
2018-08-22T01:23:21.298Z,100753.81
2018-08-22T01:25:55.073Z,100768.55
2018-08-22T01:28:28.431Z,100773.42
2018-08-22T01:31:01.461Z,100771.77
2018-08-22T01:33:34.378Z,100776.98
2018-08-22T01:36:07.222Z,100775.16
2018-08-22T01:38:40.176Z,100771.05
2018-08-22T01:41:13.051Z,100771.98
2018-08-22T01:43:45.990Z,100770.70
2018-08-22T01:46:18.761Z,100771.88
2018-08-22T01:48:51.716Z,100771.71
2018-08-22T01:51:24.874Z,100776.28
2018-08-22T01:53:57.800Z,100767.89
2018-08-22T01:56:30.695Z,100774.55
2018-08-22T01:59:03.504Z,100773.70
2018-08-22T02:01:36.327Z,100780.89
2018-08-22T02:04:09.377Z,100785.87
2018-08-22T02:06:42.282Z,100783.94
2018-08-22T02:09:15.127Z,100785.61
2018-08-22T02:11:47.920Z,100780.16
2018-08-22T02:14:20.860Z,100782.46
2018-08-22T02:16:53.873Z,100789.66
2018-08-22T02:19:26.901Z,100790.87
2018-08-22T02:21:59.784Z,100782.80
2018-08-22T02:24:32.693Z,100788.61
2018-08-22T02:27:05.604Z,100779.84
2018-08-22T02:29:38.458Z,100782.02
2018-08-22T02:32:11.825Z,100791.78
2018-08-22T02:34:45.601Z,100791.22
2018-08-22T02:37:18.386Z,100790.35
2018-08-22T02:39:52.504Z,100787.65
2018-08-22T02:42:25.407Z,100791.44
2018-08-22T02:44:58.272Z,100789.95
2018-08-22T02:47:31.333Z,100783.50
2018-08-22T02:50:04.256Z,100786.30
2018-08-22T02:52:37.172Z,100783.11
2018-08-22T02:55:10.126Z,100785.89
2018-08-22T02:57:42.999Z,100786.59
2018-08-22T03:00:15.944Z,100783.73
2018-08-22T03:02:49.792Z,100776.61
2018-08-22T03:05:23.001Z,100781.36
2018-08-22T03:07:56.039Z,100771.92
2018-08-22T03:10:29.276Z,100769.23
2018-08-22T03:13:02.356Z,100774.41
2018-08-22T03:15:35.160Z,100771.59
2018-08-22T03:18:08.141Z,100785.70
2018-08-22T03:20:41.052Z,100779.70
2018-08-22T03:23:13.984Z,100782.34
2018-08-22T03:25:47.199Z,100778.95
2018-08-22T03:28:20.166Z,100782.72
2018-08-22T03:30:53.000Z,100783.78
2018-08-22T03:33:25.891Z,100788.68
2018-08-22T03:35:58.751Z,100779.55
2018-08-22T03:38:31.656Z,100783.27
2018-08-22T03:41:04.466Z,100784.24
2018-08-22T03:43:37.295Z,100784.09
2018-08-22T03:46:10.125Z,100775.95
2018-08-22T03:48:42.950Z,100776.48
2018-08-22T03:51:15.830Z,100776.27
2018-08-22T03:53:48.688Z,100772.47
2018-08-22T03:56:21.461Z,100778.16
2018-08-22T03:58:54.268Z,100779.84
2018-08-22T04:01:27.191Z,100785.75
2018-08-22T04:04:00.142Z,100793.03
2018-08-22T04:06:33.859Z,100793.41
2018-08-22T04:09:07.204Z,100799.67
2018-08-22T04:11:40.126Z,100798.17
2018-08-22T04:14:12.967Z,100804.76
2018-08-22T04:16:45.927Z,100807.50
2018-08-22T04:19:18.922Z,100801.21
2018-08-22T04:21:52.113Z,100800.62
2018-08-22T04:24:25.253Z,100796.20
2018-08-22T04:26:58.091Z,100804.64
2018-08-22T04:29:31.073Z,100797.73
2018-08-22T04:32:03.949Z,100799.47
2018-08-22T04:34:36.808Z,100799.63
2018-08-22T04:37:09.716Z,100801.47
2018-08-22T04:39:42.666Z,100793.45
2018-08-22T04:42:15.791Z,100784.18
2018-08-22T04:44:49.029Z,100779.09
2018-08-22T04:47:21.918Z,100767.42
2018-08-22T04:49:54.923Z,100757.34
2018-08-22T04:52:27.846Z,100754.66
2018-08-22T04:55:01.790Z,100742.98
2018-08-22T04:57:34.736Z,100733.80
2018-08-22T05:00:08.518Z,100730.70
2018-08-22T05:02:41.715Z,100721.55
2018-08-22T05:05:15.120Z,100709.47
2018-08-22T05:07:47.893Z,100710.05
2018-08-22T05:10:20.715Z,100705.49
2018-08-22T05:12:53.611Z,100701.41
2018-08-22T05:15:26.668Z,100700.73
2018-08-22T05:18:05.876Z,100700.96
2018-08-22T05:20:38.827Z,100690.89
2018-08-22T05:23:11.827Z,100692.02
2018-08-22T05:25:44.812Z,100696.97
2018-08-22T05:28:17.700Z,100705.89
2018-08-22T05:30:50.654Z,100700.55
2018-08-22T05:33:23.759Z,100686.59
2018-08-22T05:35:56.751Z,100694.33
2018-08-22T05:38:29.557Z,100692.17
2018-08-22T05:41:02.480Z,100697.11
2018-08-22T05:43:35.838Z,100697.53
2018-08-22T05:46:08.731Z,100701.05
2018-08-22T05:48:41.613Z,100689.36
2018-08-22T05:51:17.030Z,100707.15
2018-08-22T05:53:50.031Z,100709.25
2018-08-22T05:56:23.066Z,100707.65
2018-08-22T05:58:56.920Z,100707.48
2018-08-22T06:01:30.436Z,100703.05
2018-08-22T06:04:03.311Z,100701.34
2018-08-22T06:06:36.306Z,100689.83
2018-08-22T06:09:13.607Z,100693.08
2018-08-22T06:11:46.876Z,100684.25
2018-08-22T06:14:19.871Z,100679.49
2018-08-22T06:16:52.773Z,100669.28
2018-08-22T06:19:25.664Z,100666.68
2018-08-22T06:21:58.501Z,100662.45
2018-08-22T06:24:31.434Z,100655.44
2018-08-22T06:27:04.607Z,100640.81
2018-08-22T06:29:37.425Z,100640.31
2018-08-22T06:32:10.354Z,100645.53
2018-08-22T06:34:43.335Z,100635.62
2018-08-22T06:37:16.565Z,100630.03
2018-08-22T06:39:49.578Z,100620.87
2018-08-22T06:42:23.387Z,100614.34
2018-08-22T06:44:56.409Z,100605.97
2018-08-22T06:47:29.420Z,100603.16
2018-08-22T06:50:02.437Z,100598.03
2018-08-22T06:52:35.291Z,100592.44
2018-08-22T06:55:08.486Z,100588.28
2018-08-22T06:57:41.528Z,100584.02
2018-08-22T07:00:14.415Z,100583.18
2018-08-22T07:02:47.282Z,100574.57
2018-08-22T07:05:20.257Z,100578.53
2018-08-22T07:07:53.206Z,100576.42
2018-08-22T07:10:27.602Z,100575.83
2018-08-22T07:13:01.232Z,100579.78
2018-08-22T07:15:35.035Z,100571.38
2018-08-22T07:17:08.704Z,100575.07
2018-08-22T07:17:57.020Z,100567.53
2018-08-22T07:18:35.125Z,100573.48
2018-08-22T07:19:13.027Z,100573.53
2018-08-22T07:19:50.862Z,100574.69
2018-08-22T07:20:28.743Z,100559.88
2018-08-22T07:21:06.663Z,100554.22
2018-08-22T07:21:44.520Z,100570.83
2018-08-22T07:22:22.569Z,100564.98
2018-08-22T07:23:00.686Z,100568.38
2018-08-22T07:23:38.666Z,100575.39
2018-08-22T07:24:16.917Z,100573.77
2018-08-22T07:24:54.939Z,100575.07
2018-08-22T07:25:32.845Z,100576.92
2018-08-22T07:26:11.426Z,100567.52
2018-08-22T07:26:49.851Z,100574.12
2018-08-22T07:27:27.773Z,100571.92
2018-08-22T07:28:06.027Z,100562.72
2018-08-22T07:28:44.045Z,100563.77
2018-08-22T07:29:22.244Z,100562.72
2018-08-22T07:30:00.834Z,100560.31
2018-08-22T07:30:38.922Z,100562.72
2018-08-22T07:31:17.016Z,100561.62
2018-08-22T07:31:54.981Z,100563.52
2018-08-22T07:32:33.232Z,100560.86
2018-08-22T07:33:11.245Z,100562.14
2018-08-22T07:33:49.184Z,100560.27
2018-08-22T07:34:27.013Z,100560.27
2018-08-22T07:35:05.913Z,100557.31
2018-08-22T07:35:43.871Z,100562.72
2018-08-22T07:36:21.972Z,100556.81
2018-08-22T07:36:59.893Z,100551.16
2018-08-22T07:37:37.865Z,100554.71
2018-08-22T07:38:15.938Z,100552.11
2018-08-22T07:38:54.057Z,100547.55
2018-08-22T07:39:31.982Z,100540.52
2018-08-22T07:40:11.890Z,100543.02
2018-08-22T07:40:50.099Z,100541.97
2018-08-22T07:41:27.987Z,100541.97
2018-08-22T07:42:06.069Z,100537.67
2018-08-22T07:42:43.963Z,100537.47
2018-08-22T07:43:21.939Z,100537.17
2018-08-22T07:43:59.913Z,100538.27
2018-08-22T07:44:37.697Z,100538.27
2018-08-22T07:45:15.753Z,100536.41
2018-08-22T07:45:53.719Z,100535.86
2018-08-22T07:46:45.589Z,100540.72
2018-08-22T07:47:23.581Z,100529.91
2018-08-22T07:48:04.583Z,100531.02
2018-08-22T07:48:42.646Z,100531.52
2018-08-22T07:49:20.753Z,100529.86
2018-08-22T07:49:58.645Z,100534.47
2018-08-22T07:50:36.867Z,100536.36
2018-08-22T07:51:15.003Z,100532.86
2018-08-22T07:51:55.823Z,100537.77
2018-08-22T07:52:33.838Z,100543.02
2018-08-22T07:53:11.814Z,100544.42
2018-08-22T07:53:49.788Z,100544.22
2018-08-22T07:54:41.825Z,100544.52
2018-08-22T07:55:19.806Z,100537.11
2018-08-22T07:55:57.722Z,100536.34
2018-08-22T07:56:35.494Z,100539.42
2018-08-22T07:57:13.776Z,100537.22
2018-08-22T07:57:51.798Z,100531.70
2018-08-22T07:58:29.657Z,100537.31
2018-08-22T07:59:14.538Z,100531.36
2018-08-22T07:59:52.600Z,100530.10
2018-08-22T08:00:30.642Z,100525.51
2018-08-22T08:01:08.602Z,100529.01
2018-08-22T08:01:46.351Z,100523.06
2018-08-22T08:02:24.267Z,100514.45
2018-08-22T08:03:02.385Z,100506.11
2018-08-22T08:03:40.307Z,100510.66
2018-08-22T08:04:18.341Z,100503.11
2018-08-22T08:04:56.285Z,100504.72
2018-08-22T08:05:34.089Z,100502.56
2018-08-22T08:06:12.058Z,100499.06
2018-08-22T08:06:49.849Z,100491.86
2018-08-22T08:07:27.942Z,100499.06
2018-08-22T08:08:05.904Z,100490.21
2018-08-22T08:08:43.884Z,100489.16
2018-08-22T08:09:23.835Z,100485.11
2018-08-22T08:10:01.813Z,100488.36
2018-08-22T08:10:39.885Z,100497.00
2018-08-22T08:11:18.179Z,100494.81
2018-08-22T08:11:56.014Z,100495.61
2018-08-22T08:12:40.499Z,100488.61
2018-08-22T08:13:22.459Z,100491.61
2018-08-22T08:14:00.598Z,100495.91
2018-08-22T08:14:41.980Z,100492.36
2018-08-22T08:15:19.873Z,100485.86
2018-08-22T08:15:57.740Z,100481.56
2018-08-22T08:17:32.517Z,100475.62
2018-08-22T08:18:10.463Z,100478.02
2018-08-22T08:18:48.316Z,100472.62
2018-08-22T08:19:26.345Z,100475.33
2018-08-22T08:20:04.286Z,100470.42
2018-08-22T08:20:42.173Z,100468.83
2018-08-22T08:21:20.153Z,100463.13
2018-08-22T08:21:57.988Z,100462.03
2018-08-22T08:22:35.899Z,100462.23
2018-08-22T08:23:13.715Z,100462.73
2018-08-22T08:23:51.749Z,100464.62
2018-08-22T08:24:29.611Z,100465.12
2018-08-22T08:25:07.662Z,100464.05
2018-08-22T08:25:45.509Z,100461.91
2018-08-22T08:26:23.597Z,100463.77
2018-08-22T08:27:01.466Z,100465.42
2018-08-22T08:27:39.436Z,100462.23
2018-08-22T08:28:17.375Z,100467.57
2018-08-22T08:28:55.270Z,100470.52
2018-08-22T08:29:33.193Z,100467.63
2018-08-22T08:30:11.440Z,100481.87
2018-08-22T08:30:49.364Z,100471.37
2018-08-22T08:31:27.261Z,100470.81
2018-08-22T08:32:05.043Z,100476.47
2018-08-22T08:32:42.999Z,100475.92
2018-08-22T08:33:20.793Z,100472.70
2018-08-22T08:33:58.752Z,100474.25
2018-08-22T08:34:36.725Z,100479.41
2018-08-22T08:35:14.644Z,100478.05
2018-08-22T08:35:52.657Z,100476.95
2018-08-22T08:36:30.773Z,100479.91
2018-08-22T08:37:08.809Z,100476.41
2018-08-22T08:38:00.408Z,100483.41
2018-08-22T08:38:38.302Z,100481.00
2018-08-22T08:39:16.218Z,100485.34
2018-08-22T08:39:54.212Z,100491.30
2018-08-22T08:40:32.207Z,100488.30
2018-08-22T08:41:09.902Z,100489.41
2018-08-22T08:41:47.941Z,100491.30
2018-08-22T08:42:25.866Z,100497.20
2018-08-22T08:43:05.174Z,100502.90
2018-08-22T08:43:43.378Z,100502.66
2018-08-22T08:44:21.192Z,100499.17
2018-08-22T08:44:58.959Z,100496.73
2018-08-22T08:45:37.038Z,100481.72
2018-08-22T08:46:15.074Z,100488.42
2018-08-22T08:46:53.020Z,100484.92
2018-08-22T08:47:30.858Z,100490.63
2018-08-22T08:48:08.741Z,100486.03
2018-08-22T08:48:46.654Z,100481.98
2018-08-22T08:49:25.374Z,100480.63
2018-08-22T08:50:03.280Z,100479.23
2018-08-22T08:50:41.424Z,100480.28
2018-08-22T08:51:19.173Z,100476.48
2018-08-22T08:52:04.025Z,100474.87
2018-08-22T08:52:41.850Z,100477.80
2018-08-22T08:53:20.832Z,100468.85
2018-08-22T08:53:58.806Z,100467.45
2018-08-22T08:54:36.717Z,100467.41
2018-08-22T08:55:14.657Z,100457.66
2018-08-22T08:55:52.520Z,100456.80
2018-08-22T08:56:30.473Z,100461.11
2018-08-22T08:57:08.570Z,100457.36
2018-08-22T08:57:46.491Z,100449.81
2018-08-22T08:58:24.439Z,100461.66
2018-08-22T08:59:02.452Z,100454.05
2018-08-22T08:59:40.371Z,100456.20
2018-08-22T09:00:18.303Z,100445.70
2018-08-22T09:00:56.486Z,100455.11
2018-08-22T09:01:34.310Z,100448.91
2018-08-22T09:02:12.262Z,100455.91
2018-08-22T09:02:50.200Z,100453.75
2018-08-22T09:03:28.224Z,100447.80
2018-08-22T09:04:06.119Z,100444.61
2018-08-22T09:04:43.999Z,100450.20
2018-08-22T09:05:21.842Z,100448.86
2018-08-22T09:05:59.749Z,100454.23
2018-08-22T09:06:37.753Z,100448.55
2018-08-22T09:07:15.864Z,100447.20
2018-08-22T09:07:53.840Z,100446.95
2018-08-22T09:08:31.690Z,100443.16
2018-08-22T09:09:12.224Z,100436.93
2018-08-22T09:09:50.530Z,100435.83
2018-08-22T09:10:28.397Z,100434.98
2018-08-22T09:11:06.341Z,100433.13
2018-08-22T09:11:48.355Z,100437.33
2018-08-22T09:12:26.191Z,100438.92
2018-08-22T09:13:04.059Z,100443.23
2018-08-22T09:13:47.218Z,100443.72
2018-08-22T09:14:25.164Z,100446.98
2018-08-22T09:15:03.124Z,100442.73
2018-08-22T09:15:41.132Z,100454.23
2018-08-22T09:16:19.276Z,100457.73
2018-08-22T09:16:57.449Z,100461.53
2018-08-22T09:17:35.437Z,100466.94
2018-08-22T09:18:13.716Z,100466.69
2018-08-22T09:18:51.498Z,100467.29
2018-08-22T09:19:29.330Z,100472.94
2018-08-22T09:20:07.667Z,100470.53
2018-08-22T09:20:45.686Z,100477.84
2018-08-22T09:21:23.609Z,100479.19
2018-08-22T09:22:04.739Z,100480.79
2018-08-22T09:22:44.111Z,100478.09
2018-08-22T09:23:23.919Z,100473.23
2018-08-22T09:24:02.759Z,100479.69
2018-08-22T09:24:42.569Z,100475.34
2018-08-22T09:25:22.411Z,100478.34
2018-08-22T09:26:01.244Z,100478.59
2018-08-22T09:26:40.396Z,100475.64
2018-08-22T09:27:18.180Z,100474.53
2018-08-22T09:27:56.003Z,100465.73
2018-08-22T09:28:33.855Z,100475.89
2018-08-22T09:29:12.652Z,100466.04
2018-08-22T09:29:50.564Z,100471.84
2018-08-22T09:30:28.450Z,100479.94
2018-08-22T09:31:06.250Z,100478.54
2018-08-22T09:31:49.361Z,100484.73
2018-08-22T09:32:28.233Z,100478.29
2018-08-22T09:33:06.130Z,100471.34
2018-08-22T09:33:44.087Z,100480.99
2018-08-22T09:34:22.048Z,100481.79
2018-08-22T09:34:59.894Z,100486.39
2018-08-22T09:35:38.077Z,100487.74
2018-08-22T09:36:16.536Z,100485.59
2018-08-22T09:36:54.487Z,100487.24
2018-08-22T09:37:32.332Z,100492.09
2018-08-22T09:38:10.258Z,100493.20
2018-08-22T09:38:48.182Z,100492.95
2018-08-22T09:39:26.098Z,100487.64
2018-08-22T09:40:04.245Z,100496.75
2018-08-22T09:40:42.042Z,100493.80
2018-08-22T09:41:19.974Z,100500.80
2018-08-22T09:41:57.884Z,100490.30
2018-08-22T09:42:35.886Z,100492.45
2018-08-22T09:43:13.699Z,100497.84
2018-08-22T09:43:51.774Z,100496.75
2018-08-22T09:44:29.755Z,100491.34
2018-08-22T09:45:07.691Z,100484.19
2018-08-22T09:45:45.538Z,100493.89
2018-08-22T09:46:23.603Z,100495.81
2018-08-22T09:47:03.149Z,100493.41
2018-08-22T09:47:41.946Z,100487.81
2018-08-22T09:48:19.902Z,100493.56
2018-08-22T09:48:57.653Z,100486.26
2018-08-22T09:49:35.607Z,100485.45
2018-08-22T09:50:13.518Z,100490.36
2018-08-22T09:50:51.501Z,100488.20
2018-08-22T09:51:29.361Z,100490.66
2018-08-22T09:52:07.181Z,100487.70
2018-08-22T09:52:45.118Z,100477.80
2018-08-22T09:53:24.149Z,100482.95
2018-08-22T09:54:02.172Z,100484.30
2018-08-22T09:54:52.677Z,100482.67
2018-08-22T09:55:30.577Z,100491.31
2018-08-22T09:56:09.616Z,100490.77
2018-08-22T09:56:47.606Z,100493.47
2018-08-22T09:57:26.645Z,100501.56
2018-08-22T09:58:04.497Z,100496.72
2018-08-22T09:58:42.430Z,100502.91
2018-08-22T09:59:20.304Z,100502.11
2018-08-22T09:59:58.241Z,100498.06
2018-08-22T10:00:40.100Z,100501.06
2018-08-22T10:01:21.987Z,100499.97
2018-08-22T10:02:00.275Z,100499.97
2018-08-22T10:02:38.170Z,100495.66
2018-08-22T10:03:16.146Z,100497.27
2018-08-22T10:03:59.603Z,100498.06
2018-08-22T10:04:37.490Z,100499.97
2018-08-22T10:05:15.423Z,100499.70
2018-08-22T10:05:53.372Z,100500.22
2018-08-22T10:06:40.503Z,100501.56
2018-08-22T10:07:18.495Z,100498.61
2018-08-22T10:07:56.776Z,100504.02
2018-08-22T10:08:37.595Z,100501.56
2018-08-22T10:09:21.965Z,100508.59
2018-08-22T10:10:02.561Z,100506.97
2018-08-22T10:10:43.082Z,100505.62
2018-08-22T10:11:24.949Z,100508.31
2018-08-22T10:12:03.356Z,100507.28
2018-08-22T10:12:42.606Z,100510.77
2018-08-22T10:13:21.336Z,100519.39
2018-08-22T10:14:02.016Z,100519.66
2018-08-22T10:14:40.026Z,100522.91
2018-08-22T10:15:19.333Z,100519.41
2018-08-22T10:15:59.917Z,100527.21
2018-08-22T10:16:40.926Z,100533.16
2018-08-22T10:17:19.153Z,100528.86
2018-08-22T10:17:58.525Z,100532.11
2018-08-22T10:18:39.009Z,100531.81
2018-08-22T10:19:17.701Z,100528.31
2018-08-22T10:19:58.979Z,100525.42
2018-08-22T10:20:40.977Z,100531.83
2018-08-22T10:21:18.977Z,100536.17
2018-08-22T10:21:59.422Z,100533.52
2018-08-22T10:22:41.923Z,100531.41
2018-08-22T10:23:21.550Z,100535.20
2018-08-22T10:23:59.814Z,100539.00
2018-08-22T10:24:38.909Z,100542.55
2018-08-22T10:25:17.481Z,100541.28
2018-08-22T10:25:57.832Z,100534.34
2018-08-22T10:26:38.534Z,100537.03
2018-08-22T10:27:20.189Z,100542.52
2018-08-22T10:28:01.156Z,100542.02
2018-08-22T10:28:41.503Z,100546.91
2018-08-22T10:29:20.445Z,100545.84
2018-08-22T10:29:58.849Z,100543.78
2018-08-22T10:30:38.514Z,100552.63
2018-08-22T10:31:18.365Z,100550.78
2018-08-22T10:31:58.709Z,100551.36
2018-08-22T10:32:37.094Z,100552.21
2018-08-22T10:33:15.663Z,100552.77
2018-08-22T10:33:55.561Z,100551.41
2018-08-22T10:34:35.056Z,100554.11
2018-08-22T10:35:13.048Z,100556.00
2018-08-22T10:35:51.025Z,100557.36
2018-08-22T10:36:29.720Z,100550.39
2018-08-22T10:37:11.528Z,100552.00
2018-08-22T10:37:54.080Z,100562.50
2018-08-22T10:38:34.026Z,100557.09
2018-08-22T10:39:15.509Z,100567.16
2018-08-22T10:39:53.967Z,100571.76
2018-08-22T10:40:37.470Z,100569.36
2018-08-22T10:41:16.125Z,100564.84
2018-08-22T10:41:56.742Z,100564.84
2018-08-22T10:42:38.333Z,100566.48
2018-08-22T10:43:18.136Z,100562.98
2018-08-22T10:43:57.792Z,100565.68
2018-08-22T10:44:40.534Z,100569.47
2018-08-22T10:45:18.341Z,100563.53
2018-08-22T10:45:58.315Z,100562.48
2018-08-22T10:46:36.646Z,100565.98
2018-08-22T10:47:19.158Z,100568.67
2018-08-22T10:48:01.409Z,100570.02
2018-08-22T10:48:41.458Z,100572.97
2018-08-22T10:49:19.418Z,100574.87
2018-08-22T10:49:57.197Z,100582.41
2018-08-22T10:50:35.265Z,100577.02
2018-08-22T10:51:13.241Z,100580.80
2018-08-22T10:51:51.069Z,100581.35
2018-08-22T10:52:28.942Z,100582.41
2018-08-22T10:53:06.838Z,100582.20
2018-08-22T10:53:44.725Z,100588.17
2018-08-22T10:54:22.544Z,100590.35
2018-08-22T10:55:00.501Z,100588.20
2018-08-22T10:55:38.350Z,100594.14
2018-08-22T10:56:16.750Z,100593.37
2018-08-22T10:56:54.662Z,100595.81
2018-08-22T10:57:32.502Z,100592.31
2018-08-22T10:58:10.475Z,100598.25
2018-08-22T10:58:48.517Z,100593.95
2018-08-22T10:59:26.532Z,100601.49
2018-08-22T11:00:04.426Z,100604.19
2018-08-22T11:00:42.409Z,100605.02
2018-08-22T11:01:20.278Z,100601.56
2018-08-22T11:01:58.206Z,100597.84
2018-08-22T11:02:36.149Z,100603.45
2018-08-22T11:03:14.142Z,100604.00
2018-08-22T11:03:52.118Z,100604.03
2018-08-22T11:04:30.029Z,100604.87
2018-08-22T11:05:08.080Z,100604.87
2018-08-22T11:05:45.902Z,100600.56
2018-08-22T11:06:23.787Z,100597.07
2018-08-22T11:07:01.723Z,100589.88
2018-08-22T11:07:39.765Z,100601.15
2018-08-22T11:08:17.534Z,100587.73
2018-08-22T11:08:55.462Z,100602.23
2018-08-22T11:09:33.410Z,100600.63
2018-08-22T11:10:11.448Z,100596.84
2018-08-22T11:10:49.325Z,100597.94
2018-08-22T11:11:27.181Z,100613.27
2018-08-22T11:12:05.101Z,100605.19
2018-08-22T11:12:43.763Z,100605.45
2018-08-22T11:13:21.683Z,100609.48
2018-08-22T11:13:59.812Z,100614.62
2018-08-22T11:14:37.808Z,100615.17
2018-08-22T11:15:15.638Z,100622.70
2018-08-22T11:15:53.846Z,100624.31
2018-08-22T11:16:31.802Z,100630.22
2018-08-22T11:17:09.642Z,100633.72
2018-08-22T11:17:47.638Z,100631.83
2018-08-22T11:18:25.584Z,100632.08
2018-08-22T11:19:03.682Z,100632.34
2018-08-22T11:19:41.737Z,100633.42
2018-08-22T11:20:20.495Z,100634.75
2018-08-22T11:20:56.066Z,100634.20
2018-08-22T11:21:42.751Z,100633.11
2018-08-22T11:22:29.394Z,100627.17
2018-08-22T11:23:16.198Z,100636.35
2018-08-22T11:24:02.983Z,100631.50
2018-08-22T11:24:50.156Z,100628.00
2018-08-22T11:25:37.030Z,100634.20
2018-08-22T11:26:24.604Z,100636.38
2018-08-22T11:27:11.271Z,100636.38
2018-08-22T11:27:58.941Z,100639.08
2018-08-22T11:28:46.533Z,100636.70
2018-08-22T11:29:33.191Z,100642.66
2018-08-22T11:30:19.978Z,100645.94
2018-08-22T11:31:06.686Z,100646.28
2018-08-22T11:31:53.425Z,100643.61
2018-08-22T11:32:40.102Z,100653.30
2018-08-22T11:33:26.978Z,100652.50
2018-08-22T11:34:13.582Z,100647.11
2018-08-22T11:34:49.721Z,100653.84
2018-08-22T11:35:24.409Z,100652.50
2018-08-22T11:35:59.088Z,100650.60
2018-08-22T11:36:34.586Z,100653.30
2018-08-22T11:37:13.496Z,100654.64
2018-08-22T11:37:51.395Z,100656.83
2018-08-22T11:38:29.477Z,100655.99
2018-08-22T11:39:09.945Z,100655.73
2018-08-22T11:39:49.620Z,100659.23
2018-08-22T11:40:27.614Z,100662.22
2018-08-22T11:41:05.700Z,100663.81
2018-08-22T11:41:43.756Z,100660.61
2018-08-22T11:42:27.247Z,100664.91
2018-08-22T11:43:05.091Z,100663.30
2018-08-22T11:43:42.995Z,100661.13
2018-08-22T11:44:21.645Z,100665.16
2018-08-22T11:44:59.656Z,100662.47
2018-08-22T11:45:39.117Z,100665.42
2018-08-22T11:46:17.165Z,100662.22
2018-08-22T11:46:54.995Z,100673.25
2018-08-22T11:47:32.922Z,100669.20
2018-08-22T11:48:10.877Z,100667.60
2018-08-22T11:48:48.788Z,100671.64
2018-08-22T11:49:27.065Z,100672.98
2018-08-22T11:50:05.214Z,100671.64
2018-08-22T11:50:43.571Z,100670.84
2018-08-22T11:51:21.791Z,100670.04
2018-08-22T11:52:00.222Z,100673.25
2018-08-22T11:52:38.265Z,100672.22
2018-08-22T11:53:16.354Z,100666.25
2018-08-22T11:53:54.589Z,100671.38
2018-08-22T11:54:32.984Z,100670.04
2018-08-22T11:55:10.943Z,100671.38
2018-08-22T11:55:49.165Z,100668.69
2018-08-22T11:56:27.279Z,100670.58
2018-08-22T11:57:05.450Z,100670.58
2018-08-22T11:57:43.386Z,100677.03
2018-08-22T11:58:21.313Z,100683.51
2018-08-22T11:58:59.264Z,100680.81
2018-08-22T11:59:37.129Z,100687.27
2018-08-22T12:00:14.951Z,100688.33
2018-08-22T12:00:52.876Z,100688.33
2018-08-22T12:01:30.836Z,100691.31
2018-08-22T12:02:08.901Z,100690.22
2018-08-22T12:02:46.840Z,100691.03
2018-08-22T12:03:24.958Z,100684.55
2018-08-22T12:04:02.927Z,100696.94
2018-08-22T12:04:40.956Z,100695.88
2018-08-22T12:05:19.110Z,100690.20
2018-08-22T12:05:57.414Z,100692.89
2018-08-22T12:06:35.556Z,100699.38
2018-08-22T12:07:13.806Z,100692.09
2018-08-22T12:07:52.872Z,100704.77
2018-08-22T12:08:31.185Z,100701.27
2018-08-22T12:09:12.729Z,100704.51
2018-08-22T12:09:50.941Z,100701.52
2018-08-22T12:10:34.941Z,100701.52
2018-08-22T12:11:14.077Z,100709.09
2018-08-22T12:11:53.136Z,100707.74
2018-08-22T12:12:31.211Z,100715.56
2018-08-22T12:13:09.122Z,100708.54
2018-08-22T12:13:47.120Z,100708.54
2018-08-22T12:14:25.346Z,100714.21
2018-08-22T12:15:03.303Z,100713.93
2018-08-22T12:15:41.149Z,100717.71
2018-08-22T12:16:19.417Z,100721.75
2018-08-22T12:16:58.190Z,100720.95
2018-08-22T12:17:36.194Z,100723.10
2018-08-22T12:18:14.115Z,100719.06
2018-08-22T12:18:53.087Z,100720.45
2018-08-22T12:19:31.212Z,100717.19
2018-08-22T12:20:09.201Z,100723.10
2018-08-22T12:20:47.030Z,100722.84
2018-08-22T12:21:24.883Z,100721.52
2018-08-22T12:22:02.642Z,100719.08
2018-08-22T12:22:40.603Z,100723.67
2018-08-22T12:23:18.449Z,100726.64
2018-08-22T12:23:56.547Z,100727.97
2018-08-22T12:24:34.464Z,100726.91
2018-08-22T12:25:12.611Z,100730.66
2018-08-22T12:25:50.806Z,100731.48
2018-08-22T12:26:28.676Z,100733.64
2018-08-22T12:27:06.549Z,100732.84
2018-08-22T12:27:44.586Z,100735.53
2018-08-22T12:28:22.781Z,100746.03
2018-08-22T12:29:00.705Z,100741.44
2018-08-22T12:29:38.720Z,100750.88
2018-08-22T12:30:16.745Z,100745.53
2018-08-22T12:30:54.728Z,100742.81
2018-08-22T12:31:32.784Z,100743.62
2018-08-22T12:32:10.690Z,100748.17
2018-08-22T12:32:48.761Z,100752.48
2018-08-22T12:33:26.729Z,100753.56
2018-08-22T12:34:04.592Z,100755.44
2018-08-22T12:34:42.579Z,100756.23
2018-08-22T12:35:34.361Z,100749.24
2018-08-22T12:36:12.444Z,100755.17
2018-08-22T12:36:50.454Z,100754.09
2018-08-22T12:37:28.447Z,100755.73
2018-08-22T12:38:06.312Z,100749.55
2018-08-22T12:38:44.126Z,100756.00
2018-08-22T12:39:22.236Z,100756.00
2018-08-22T12:40:00.243Z,100763.52
2018-08-22T12:40:38.334Z,100764.87
2018-08-22T12:41:16.328Z,100752.25
2018-08-22T12:41:54.226Z,100768.36
2018-08-22T12:42:32.512Z,100764.61
2018-08-22T12:43:10.478Z,100767.30
2018-08-22T12:43:48.390Z,100764.34
2018-08-22T12:44:26.484Z,100764.87
2018-08-22T12:45:04.458Z,100769.17
2018-08-22T12:45:42.452Z,100769.72
2018-08-22T12:46:20.698Z,100771.86
2018-08-22T12:46:58.510Z,100771.61
2018-08-22T12:47:36.434Z,100769.17
2018-08-22T12:48:14.376Z,100773.21
2018-08-22T12:48:52.231Z,100773.50
2018-08-22T12:49:30.336Z,100773.50
2018-08-22T12:50:08.463Z,100769.46
2018-08-22T12:50:46.380Z,100774.05